Time;durP1;ratioP1;P1;durP2;ratioP2;P2;SDS_P1;SDS_P2;PMS_P1;PMS_P2;Temp;Humidity;BMP_temperature;BMP_pressure;BME280_temperature;BME280_humidity;BME280_pressure;Samples;Min_cycle;Max_cycle;Signal;HPM_P1;HPM_P2
2022/05/29 00:02:31;;;;;;;2.13;1.70;;;;;;;20.91;47.77;100788.34;5047748;28;20471;-55
2022/05/29 00:06:50;;;;;;;2.03;1.50;;;;;;;20.90;47.59;100781.28;5106434;27;20768;-55
2022/05/29 00:09:20;;;;;;;2.50;1.70;;;;;;;20.85;47.72;100780.38;5100925;28;20469;-57
2022/05/29 00:11:48;;;;;;;4.10;1.50;;;;;;;20.59;48.11;100794.06;5104951;28;20408;-56
2022/05/29 00:14:15;;;;;;;4.22;1.60;;;;;;;20.53;48.38;100794.19;5102789;28;20409;-55
2022/05/29 00:17:31;;;;;;;4.18;1.70;;;;;;;20.54;48.47;100787.75;5067563;28;20465;-58
2022/05/29 00:19:58;;;;;;;3.22;2.55;;;;;;;20.40;48.91;100782.59;5060919;28;20410;-56
2022/05/29 00:22:25;;;;;;;2.80;2.00;;;;;;;20.24;48.90;100784.09;5061598;28;20426;-58
2022/05/29 00:24:52;;;;;;;3.30;1.70;;;;;;;20.25;49.03;100766.06;5060048;28;20426;-58
2022/05/29 00:29:23;;;;;;;3.05;1.52;;;;;;;20.28;49.00;100760.22;5109594;27;20469;-56
2022/05/29 00:31:50;;;;;;;2.40;1.80;;;;;;;20.32;48.83;100769.47;5102209;28;20416;-56
2022/05/29 00:34:17;;;;;;;1.95;1.75;;;;;;;19.96;49.39;100765.09;5102840;28;20953;-56
2022/05/29 00:36:44;;;;;;;4.53;2.40;;;;;;;20.13;49.05;100755.31;5100695;28;20404;-56
2022/05/29 00:39:14;;;;;;;3.73;2.00;;;;;;;20.11;49.06;100743.13;5098154;28;20429;-56
2022/05/29 00:41:43;;;;;;;4.13;2.25;;;;;;;20.23;49.06;100725.13;5104106;28;20898;-56
2022/05/29 00:44:16;;;;;;;3.45;2.30;;;;;;;20.25;48.79;100712.25;5105816;28;20419;-56
2022/05/29 00:46:48;;;;;;;5.10;2.17;;;;;;;20.34;48.78;100707.31;5102247;28;20802;-56
2022/05/29 00:49:17;;;;;;;2.88;1.83;;;;;;;20.33;48.76;100702.97;5095803;28;20432;-56
2022/05/29 00:51:47;;;;;;;4.32;2.10;;;;;;;20.37;48.59;100701.47;5103967;28;20435;-56
2022/05/29 00:54:16;;;;;;;3.45;2.10;;;;;;;20.36;48.93;100697.13;5102918;28;20477;-56
2022/05/29 00:56:45;;;;;;;3.40;2.00;;;;;;;20.38;48.90;100690.47;5101880;28;20792;-56
2022/05/29 00:59:17;;;;;;;2.83;1.60;;;;;;;20.35;48.98;100682.88;5104729;28;20413;-56
2022/05/29 01:01:45;;;;;;;2.60;2.00;;;;;;;20.32;49.07;100680.63;5105027;28;20416;-56
2022/05/29 01:04:13;;;;;;;3.10;1.90;;;;;;;20.28;49.03;100684.88;5097038;28;20477;-56
2022/05/29 01:06:40;;;;;;;4.00;2.05;;;;;;;20.23;49.37;100696.31;5103452;28;20490;-56
2022/05/29 01:10:10;;;;;;;2.88;1.70;;;;;;;20.19;49.51;100713.19;5088319;27;21004;-56
2022/05/29 01:12:47;;;;;;;2.20;1.80;;;;;;;20.14;49.50;100713.88;5082819;28;20428;-56
2022/05/29 01:15:25;;;;;;;5.10;1.80;;;;;;;20.20;49.37;100715.66;5085171;28;20410;-56
2022/05/29 01:18:01;;;;;;;3.72;2.00;;;;;;;20.13;49.63;100712.25;5078564;28;20414;-56
2022/05/29 01:20:56;;;;;;;2.95;2.00;;;;;;;20.19;49.22;100686.28;5082025;28;20418;-56
2022/05/29 01:23:59;;;;;;;3.33;2.00;;;;;;;20.13;49.30;100687.19;5081324;28;20410;-56
2022/05/29 01:26:57;;;;;;;3.47;2.17;;;;;;;20.09;49.28;100686.03;5036666;28;20404;-56
2022/05/29 01:29:32;;;;;;;4.03;2.00;;;;;;;20.05;49.30;100675.72;5083829;28;20430;-57
2022/05/29 01:32:06;;;;;;;2.97;2.03;;;;;;;20.06;49.34;100684.63;5079551;28;20853;-56
2022/05/29 01:34:38;;;;;;;3.10;2.10;;;;;;;20.05;49.22;100667.66;5079632;28;20414;-56
2022/05/29 01:37:11;;;;;;;3.40;2.10;;;;;;;19.98;49.17;100669.66;5083151;28;20429;-56
2022/05/29 01:40:38;;;;;;;4.30;2.20;;;;;;;19.97;48.99;100670.72;5083558;27;2050239;-56
2022/05/29 01:43:16;;;;;;;2.50;2.30;;;;;;;19.86;48.89;100669.66;5164792;27;20410;-56
2022/05/29 01:45:57;;;;;;;3.42;2.10;;;;;;;19.78;48.41;100659.22;5161755;27;20902;-56
2022/05/29 01:48:35;;;;;;;3.80;2.30;;;;;;;19.83;48.05;100670.09;5161890;27;20422;-56
2022/05/29 01:51:08;;;;;;;5.60;2.60;;;;;;;19.80;48.14;100669.75;5160621;27;20409;-56
2022/05/29 01:53:40;;;;;;;4.65;2.60;;;;;;;19.75;48.07;100673.13;5159793;27;20411;-56
2022/05/29 01:56:16;;;;;;;3.70;2.30;;;;;;;19.59;48.45;100674.63;5162502;27;20425;-55
2022/05/29 01:58:49;;;;;;;4.70;2.50;;;;;;;19.63;48.35;100678.47;5163884;27;20430;-56
2022/05/29 02:01:18;;;;;;;3.85;2.45;;;;;;;19.59;48.36;100681.84;5159956;27;20408;-56
2022/05/29 02:03:50;;;;;;;3.00;2.30;;;;;;;19.63;48.25;100672.28;5160618;27;20425;-56
2022/05/29 02:06:21;;;;;;;3.70;2.47;;;;;;;19.63;48.14;100673.09;5158391;27;20794;-56
2022/05/29 02:11:18;;;;;;;3.88;2.88;;;;;;;19.59;48.20;100647.72;5107543;27;20449;-58
2022/05/29 02:13:50;;;;;;;4.25;2.70;;;;;;;19.57;48.02;100638.22;5105099;28;20419;-58
2022/05/29 02:16:21;;;;;;;3.85;2.80;;;;;;;19.56;47.95;100637.41;5104893;28;20412;-58
2022/05/29 02:18:53;;;;;;;3.38;2.78;;;;;;;19.39;48.47;100641.81;5102657;28;20429;-57
2022/05/29 02:21:27;;;;;;;3.47;2.97;;;;;;;19.46;48.36;100638.00;5103371;28;20414;-58
2022/05/29 02:23:59;;;;;;;5.57;3.90;;;;;;;19.36;48.52;100626.97;5104199;28;20419;-58
2022/05/29 02:26:34;;;;;;;4.75;3.00;;;;;;;19.21;48.69;100638.16;5101218;28;20438;-58
2022/05/29 02:29:08;;;;;;;3.38;2.85;;;;;;;19.28;48.51;100646.13;5101511;28;20924;-58
2022/05/29 02:33:19;;;;;;;3.38;2.70;;;;;;;19.34;48.18;100672.09;5107067;27;20458;-58
2022/05/29 02:35:55;;;;;;;3.63;3.20;;;;;;;19.28;48.46;100673.84;5106415;28;20756;-58
2022/05/29 02:38:32;;;;;;;4.00;2.80;;;;;;;19.32;48.35;100670.66;5103494;28;20436;-58
2022/05/29 02:41:00;;;;;;;4.65;2.97;;;;;;;19.34;47.75;100657.81;5103054;28;20427;-58
2022/05/29 02:43:35;;;;;;;3.33;2.80;;;;;;;19.28;48.20;100649.63;5104771;28;20412;-55
2022/05/29 02:46:11;;;;;;;3.80;3.00;;;;;;;19.33;48.28;100665.06;5102952;28;20902;-55
2022/05/29 02:48:45;;;;;;;3.05;2.75;;;;;;;19.33;48.24;100664.25;5100768;28;20544;-58
2022/05/29 02:51:18;;;;;;;4.82;2.85;;;;;;;19.28;48.20;100652.34;5103483;28;20806;-55
2022/05/29 02:53:46;;;;;;;3.28;2.72;;;;;;;19.37;48.19;100649.31;5103041;28;20418;-55
2022/05/29 02:56:14;;;;;;;4.75;2.80;;;;;;;19.29;48.28;100662.00;5099488;28;20413;-57
2022/05/29 02:58:44;;;;;;;5.80;2.80;;;;;;;19.24;48.09;100666.44;5105242;28;20412;-58
2022/05/29 03:01:28;;;;;;;3.67;2.60;;;;;;;19.19;48.21;100682.44;5104148;28;20417;-58
2022/05/29 03:04:25;;;;;;;4.05;3.13;;;;;;;19.17;48.19;100689.91;5102321;28;20423;-58
2022/05/29 03:06:57;;;;;;;5.10;3.20;;;;;;;19.20;48.14;100681.38;5101847;28;20488;-58
2022/05/29 03:09:39;;;;;;;3.93;3.50;;;;;;;19.07;48.72;100668.97;5100035;28;20402;-56
2022/05/29 03:12:26;;;;;;;3.97;3.40;;;;;;;19.10;48.57;100663.13;5078520;28;20449;-58
2022/05/29 03:15:07;;;;;;;4.97;3.80;;;;;;;19.01;48.58;100661.78;5094573;28;20939;-58
2022/05/29 03:17:42;;;;;;;5.20;3.97;;;;;;;19.01;48.80;100643.78;5086001;28;20406;-56
2022/05/29 03:20:18;;;;;;;6.43;4.10;;;;;;;19.01;48.75;100640.31;5085402;28;20425;-58
2022/05/29 03:22:55;;;;;;;4.35;3.95;;;;;;;19.05;48.61;100633.41;5085996;28;20413;-55
2022/05/29 03:25:27;;;;;;;5.00;4.20;;;;;;;19.00;48.70;100622.56;5085504;28;20787;-58
2022/05/29 03:27:58;;;;;;;4.75;4.30;;;;;;;19.07;48.72;100623.28;5086830;28;20414;-58
2022/05/29 03:30:30;;;;;;;5.88;4.38;;;;;;;19.09;48.44;100616.63;5085533;28;20406;-58
2022/05/29 03:33:00;;;;;;;4.80;4.20;;;;;;;19.01;48.41;100619.63;5094884;28;20420;-58
2022/05/29 03:35:32;;;;;;;6.13;4.45;;;;;;;18.97;48.53;100617.63;5088246;28;20425;-56
2022/05/29 03:38:00;;;;;;;5.93;4.72;;;;;;;18.81;48.60;100614.53;5085592;28;20414;-58
2022/05/29 03:40:29;;;;;;;5.90;4.53;;;;;;;18.89;48.57;100619.59;5085207;28;20430;-58
2022/05/29 03:42:56;;;;;;;5.32;4.45;;;;;;;18.86;48.33;100632.66;5080805;28;20413;-58
2022/05/29 03:45:24;;;;;;;4.78;4.22;;;;;;;18.87;48.25;100640.50;5071489;28;20425;-56
2022/05/29 03:47:51;;;;;;;5.15;3.95;;;;;;;18.80;48.89;100650.47;5072135;28;20410;-58
2022/05/29 03:50:20;;;;;;;5.53;4.43;;;;;;;18.90;48.63;100652.63;5071180;28;20414;-58
2022/05/29 03:52:49;;;;;;;4.70;4.20;;;;;;;18.94;48.77;100659.19;5071422;28;20429;-58
2022/05/29 03:55:20;;;;;;;5.70;4.43;;;;;;;19.09;48.43;100642.69;5071630;28;20425;-57
2022/05/29 03:57:47;;;;;;;4.63;4.22;;;;;;;19.13;48.24;100634.97;5071557;28;20414;-57
2022/05/29 04:00:50;;;;;;;6.03;5.00;;;;;;;19.44;47.73;100623.94;5091344;27;20459;-58
2022/05/29 04:03:17;;;;;;;4.70;3.90;;;;;;;19.47;47.76;100611.94;5086596;28;20406;-56
2022/05/29 04:05:44;;;;;;;6.05;4.15;;;;;;;19.63;47.36;100622.00;5085744;28;20452;-58
2022/05/29 04:13:42;;;;;;;4.75;4.05;;;;;;;19.91;46.82;100579.34;5086548;28;20472;-58
2022/05/29 04:16:11;;;;;;;5.30;4.18;;;;;;;20.24;46.11;100586.81;5085816;28;20424;-56
2022/05/29 04:18:38;;;;;;;5.35;3.55;;;;;;;20.38;45.92;100587.34;5086299;28;20406;-59
2022/05/29 04:21:06;;;;;;;6.88;3.70;;;;;;;20.57;45.00;100582.59;5086415;28;20413;-59
2022/05/29 04:23:33;;;;;;;4.20;3.65;;;;;;;20.75;45.04;100568.16;5086532;28;20413;-58
2022/05/29 04:26:00;;;;;;;5.75;4.00;;;;;;;20.76;45.13;100576.00;5080716;28;20412;-57
2022/05/29 04:28:27;;;;;;;6.10;4.40;;;;;;;20.93;44.84;100588.69;5085651;28;20414;-59
2022/05/29 04:30:54;;;;;;;6.40;4.72;;;;;;;21.02;44.53;100610.69;5084533;28;20792;-58
2022/05/29 04:33:23;;;;;;;6.00;4.10;;;;;;;21.05;44.37;100608.34;5085619;28;20415;-58
2022/05/29 04:35:52;;;;;;;5.55;4.18;;;;;;;21.08;44.54;100605.13;5086261;28;20527;-58
2022/05/29 04:38:20;;;;;;;6.45;3.95;;;;;;;21.28;43.82;100599.28;5085729;28;20416;-58
2022/05/29 04:40:47;;;;;;;4.57;3.65;;;;;;;21.80;43.21;100592.03;5085695;28;20422;-58
2022/05/29 04:43:15;;;;;;;4.22;3.00;;;;;;;22.16;41.95;100598.72;5085928;28;20791;-58
2022/05/29 04:45:45;;;;;;;4.60;3.17;;;;;;;22.53;41.57;100588.16;5085394;28;20970;-58
2022/05/29 04:48:13;;;;;;;4.03;2.65;;;;;;;22.86;40.51;100590.94;5085455;28;20485;-58
2022/05/29 04:50:41;;;;;;;3.87;2.33;;;;;;;22.93;39.93;100605.06;5085851;28;20448;-58
2022/05/29 04:53:08;;;;;;;2.85;1.83;;;;;;;23.13;39.40;100614.47;5085981;28;20416;-58
2022/05/29 04:55:36;;;;;;;2.60;2.08;;;;;;;23.32;39.06;100618.44;5081849;28;20907;-58
2022/05/29 04:58:03;;;;;;;2.85;2.47;;;;;;;23.51;38.72;100628.88;5085544;28;20420;-58
2022/05/29 05:00:30;;;;;;;3.15;2.10;;;;;;;23.75;38.34;100627.44;5085025;28;20433;-58
2022/05/29 05:02:57;;;;;;;3.85;2.00;;;;;;;23.98;37.64;100639.78;5084100;28;20936;-59
2022/05/29 05:05:24;;;;;;;2.30;1.88;;;;;;;24.15;37.24;100645.03;5084451;28;20424;-59
2022/05/29 05:07:52;;;;;;;4.63;2.00;;;;;;;24.24;37.05;100637.22;5079582;28;20424;-58
2022/05/29 05:10:20;;;;;;;3.05;1.85;;;;;;;24.38;36.70;100634.84;5080801;28;20417;-58
2022/05/29 05:12:47;;;;;;;3.35;1.55;;;;;;;24.59;35.55;100630.34;5071245;28;20419;-60
2022/05/29 05:15:16;;;;;;;3.90;1.80;;;;;;;24.51;35.85;100634.38;5070878;28;20415;-59
2022/05/29 05:17:43;;;;;;;3.10;1.90;;;;;;;24.58;35.40;100634.97;5070846;28;20419;-58
2022/05/29 05:20:11;;;;;;;4.60;1.92;;;;;;;24.58;35.60;100624.13;5070949;28;20433;-59
2022/05/29 05:22:38;;;;;;;3.15;2.03;;;;;;;24.33;35.76;100626.72;5070644;28;20423;-59
2022/05/29 05:25:08;;;;;;;3.53;1.58;;;;;;;24.10;36.45;100611.69;5071232;28;20490;-59
2022/05/29 05:27:35;;;;;;;2.85;1.70;;;;;;;24.29;36.33;100606.63;5070142;28;20421;-59
2022/05/29 05:30:02;;;;;;;3.78;1.80;;;;;;;24.12;36.41;100614.94;5069104;28;20425;-58
2022/05/29 05:32:29;;;;;;;4.93;1.80;;;;;;;24.61;35.42;100620.06;5070808;28;20823;-59
2022/05/29 05:34:56;;;;;;;2.28;1.70;;;;;;;25.29;34.35;100614.53;5070407;28;20407;-58
2022/05/29 05:37:23;;;;;;;3.50;1.70;;;;;;;25.16;34.65;100613.13;5070642;28;20879;-59
2022/05/29 05:39:52;;;;;;;3.60;1.50;;;;;;;24.77;35.16;100616.31;5070227;28;20427;-59
2022/05/29 05:42:20;;;;;;;11.03;2.00;;;;;;;24.62;35.32;100621.69;5068333;28;20414;-58
2022/05/29 05:44:48;;;;;;;11.73;2.90;;;;;;;24.48;35.48;100624.06;5068811;28;20414;-59
2022/05/29 05:47:15;;;;;;;4.47;1.70;;;;;;;24.36;35.82;100618.88;5067931;28;20417;-59
2022/05/29 05:49:42;;;;;;;3.05;1.90;;;;;;;24.42;35.95;100617.00;5068839;28;20497;-58
2022/05/29 05:52:09;;;;;;;4.72;1.60;;;;;;;24.41;36.85;100621.56;5070174;28;20426;-58
2022/05/29 05:54:36;;;;;;;3.88;1.80;;;;;;;24.75;35.91;100634.75;5070740;28;20407;-58
2022/05/29 05:57:05;;;;;;;3.20;1.60;;;;;;;24.84;35.87;100632.31;5065261;28;20419;-58
2022/05/29 05:59:34;;;;;;;2.65;1.75;;;;;;;24.55;35.87;100630.06;5062587;28;20515;-58
2022/05/29 06:02:01;;;;;;;2.67;1.65;;;;;;;25.06;35.21;100625.88;5067989;28;20421;-59
2022/05/29 06:04:28;;;;;;;5.38;1.55;;;;;;;25.74;34.00;100626.44;5066335;28;20419;-59
2022/05/29 06:06:55;;;;;;;4.70;1.50;;;;;;;25.92;34.12;100626.97;5066341;28;20948;-59
2022/05/29 06:09:23;;;;;;;3.53;1.20;;;;;;;25.53;34.43;100638.41;5068229;28;20433;-58
2022/05/29 06:11:50;;;;;;;4.03;2.03;;;;;;;25.26;34.42;100635.94;5069862;28;20442;-58
2022/05/29 06:14:17;;;;;;;3.22;2.13;;;;;;;24.94;35.24;100656.75;5062617;28;20465;-58
2022/05/29 06:16:45;;;;;;;2.88;2.03;;;;;;;24.66;35.78;100660.75;5063436;28;20431;-58
2022/05/29 06:19:12;;;;;;;4.47;1.45;;;;;;;24.30;36.04;100646.19;5067440;28;20419;-59
2022/05/29 06:21:39;;;;;;;4.90;1.23;;;;;;;24.13;36.62;100633.66;5066204;28;20415;-59
2022/05/29 06:24:06;;;;;;;2.95;1.90;;;;;;;23.90;37.11;100632.16;5067775;28;20414;-58
2022/05/29 06:26:34;;;;;;;4.10;1.77;;;;;;;23.75;37.84;100630.13;5068443;28;20417;-58
2022/05/29 06:29:01;;;;;;;3.72;1.50;;;;;;;24.21;37.22;100618.78;5069343;28;20425;-58
2022/05/29 06:31:28;;;;;;;2.87;1.40;;;;;;;24.43;36.99;100619.44;5069200;28;20421;-58
2022/05/29 06:33:56;;;;;;;4.57;1.55;;;;;;;24.77;39.41;100620.91;5069589;28;20426;-58
2022/05/29 06:36:25;;;;;;;2.57;1.40;;;;;;;24.12;39.22;100637.41;5064078;28;20419;-58
2022/05/29 06:38:53;;;;;;;1.38;1.20;;;;;;;23.52;39.34;100652.16;5069128;28;20452;-58
2022/05/29 06:41:22;;;;;;;4.07;1.80;;;;;;;23.32;41.22;100647.34;5068956;28;20427;-58
2022/05/29 06:43:50;;;;;;;2.80;1.20;;;;;;;23.18;41.60;100636.16;5066523;28;20900;-58
2022/05/29 06:46:17;;;;;;;3.33;1.60;;;;;;;23.01;41.83;100623.53;5067316;28;20414;-58
2022/05/29 06:48:44;;;;;;;2.03;1.45;;;;;;;22.79;43.42;100625.44;5066294;28;20429;-58
2022/05/29 06:51:15;;;;;;;6.78;1.80;;;;;;;22.69;43.55;100634.25;5067309;28;20925;-58
2022/05/29 06:53:43;;;;;;;2.55;1.55;;;;;;;22.18;45.15;100617.38;5067563;28;20421;-58
2022/05/29 06:56:10;;;;;;;2.43;1.37;;;;;;;21.80;44.23;100622.50;5068320;28;20426;-58
2022/05/29 06:58:37;;;;;;;1.75;1.25;;;;;;;21.84;43.47;100620.97;5067876;28;20419;-58
2022/05/29 07:09:20;;;;;;;2.30;1.50;;;;;;;22.43;45.54;100623.13;5068835;28;20468;-58
2022/05/29 07:11:50;;;;;;;3.53;1.20;;;;;;;22.39;44.54;100623.91;5068532;28;20796;-58
2022/05/29 07:14:18;;;;;;;2.97;1.80;;;;;;;22.39;45.08;100626.59;5068992;28;20422;-58
2022/05/29 07:16:45;;;;;;;2.28;1.40;;;;;;;22.24;44.96;100621.78;5068762;28;20425;-58
2022/05/29 07:19:13;;;;;;;1.88;1.35;;;;;;;21.89;45.27;100612.94;5065724;28;21192;-58
2022/05/29 07:21:43;;;;;;;1.42;1.30;;;;;;;21.67;45.50;100620.16;5064252;28;20830;-58
2022/05/29 07:26:10;;;;;;;2.85;1.40;;;;;;;21.77;45.38;100590.66;5069455;27;20403;-59
2022/05/29 07:28:37;;;;;;;1.80;1.50;;;;;;;21.54;45.53;100560.09;5063816;28;20418;-59
2022/05/29 07:31:04;;;;;;;1.75;1.48;;;;;;;21.30;46.57;100569.38;5066214;28;20422;-59
2022/05/29 07:33:31;;;;;;;2.05;1.50;;;;;;;21.30;46.36;100594.47;5063588;28;20420;-59
2022/05/29 07:36:01;;;;;;;3.05;1.70;;;;;;;21.54;47.68;100626.72;5061394;28;20477;-59
2022/05/29 07:38:28;;;;;;;2.83;1.60;;;;;;;21.50;48.18;100623.69;5064441;28;20415;-59
2022/05/29 07:40:55;;;;;;;4.55;1.70;;;;;;;21.55;49.12;100634.56;5058220;28;20449;-59
2022/05/29 07:43:23;;;;;;;3.53;1.80;;;;;;;21.56;48.77;100644.28;5065865;28;20420;-56
2022/05/29 07:45:52;;;;;;;4.53;2.08;;;;;;;21.61;48.84;100637.31;5053635;28;20428;-59
2022/05/29 07:48:20;;;;;;;2.50;2.10;;;;;;;21.70;49.91;100647.47;5066041;28;20416;-59
2022/05/29 07:50:47;;;;;;;2.67;2.08;;;;;;;21.94;49.21;100642.69;5061991;28;20426;-59
2022/05/29 07:53:15;;;;;;;2.60;1.88;;;;;;;22.15;48.37;100637.59;5064710;28;20412;-59
2022/05/29 07:55:43;;;;;;;2.38;1.70;;;;;;;22.33;47.57;100636.53;5056491;28;20431;-59
2022/05/29 07:58:12;;;;;;;4.55;1.83;;;;;;;22.27;47.48;100627.53;5052778;28;20508;-59
2022/05/29 08:00:41;;;;;;;2.28;1.67;;;;;;;22.20;46.70;100626.88;5052838;28;20418;-57
2022/05/29 08:03:08;;;;;;;3.22;2.13;;;;;;;22.32;46.28;100626.78;5056242;28;20463;-58
2022/05/29 08:05:37;;;;;;;2.97;2.03;;;;;;;22.44;46.35;100623.97;5055146;28;20791;-58
2022/05/29 08:08:08;;;;;;;5.60;3.00;;;;;;;22.44;46.77;100626.66;5058385;28;20419;-58
2022/05/29 08:10:37;;;;;;;3.10;1.85;;;;;;;22.38;46.57;100625.75;5054067;28;20420;-57
2022/05/29 08:13:05;;;;;;;2.13;1.88;;;;;;;22.57;45.94;100620.06;5056291;28;20813;-58
2022/05/29 08:15:32;;;;;;;2.92;1.70;;;;;;;22.57;45.22;100623.56;5051615;28;20803;-57
2022/05/29 08:18:00;;;;;;;3.95;2.13;;;;;;;22.27;46.21;100616.75;5055491;28;20795;-58
2022/05/29 08:20:29;;;;;;;4.55;2.40;;;;;;;22.34;46.14;100621.94;5055431;28;20449;-57
2022/05/29 08:22:56;;;;;;;3.57;2.00;;;;;;;22.62;45.48;100626.34;5054586;28;20419;-57
2022/05/29 08:30:54;;;;;;;3.53;1.80;;;;;;;22.16;46.64;100633.81;5054551;28;20923;-58
2022/05/29 08:33:24;;;;;;;4.07;1.98;;;;;;;22.63;46.29;100633.38;5054287;28;20507;-58
2022/05/29 08:35:53;;;;;;;3.35;2.00;;;;;;;22.49;45.84;100637.50;5050971;28;20419;-58
2022/05/29 08:38:21;;;;;;;2.72;2.03;;;;;;;22.29;46.12;100638.06;5042272;28;20953;-56
2022/05/29 08:40:51;;;;;;;3.50;2.00;;;;;;;22.51;45.66;100628.09;5041171;28;20421;-57
2022/05/29 08:43:26;;;;;;;4.25;2.10;;;;;;;22.92;45.44;100630.44;5041131;28;20412;-58
2022/05/29 08:45:53;;;;;;;2.70;1.70;;;;;;;22.50;45.82;100631.88;5041087;28;20597;-58
2022/05/29 08:48:24;;;;;;;2.78;1.80;;;;;;;22.71;45.68;100638.34;5040706;28;20416;-58
2022/05/29 08:51:04;;;;;;;4.03;2.03;;;;;;;23.37;45.18;100632.00;5042687;28;20428;-57
2022/05/29 08:53:40;;;;;;;4.25;1.85;;;;;;;23.20;45.30;100639.41;5040332;28;20907;-58
2022/05/29 08:56:19;;;;;;;3.75;1.67;;;;;;;22.69;46.10;100634.25;5040395;28;20414;-57
2022/05/29 08:59:03;;;;;;;3.58;1.98;;;;;;;22.43;46.93;100625.84;5040590;28;20472;-57
2022/05/29 09:01:52;;;;;;;3.40;1.83;;;;;;;22.75;46.24;100632.44;5041000;28;20428;-56
2022/05/29 09:04:29;;;;;;;4.80;1.85;;;;;;;22.26;47.87;100630.47;5040917;28;20425;-58
2022/05/29 09:06:59;;;;;;;2.28;1.70;;;;;;;22.39;48.05;100627.41;5040153;28;20409;-58
2022/05/29 09:09:33;;;;;;;2.75;1.98;;;;;;;22.38;47.73;100623.06;5042675;28;20470;-57
2022/05/29 09:12:05;;;;;;;3.88;1.88;;;;;;;22.49;47.21;100610.50;5038479;28;20852;-58
2022/05/29 09:14:40;;;;;;;6.65;2.05;;;;;;;22.42;47.55;100616.13;5048827;28;20794;-58
2022/05/29 09:17:12;;;;;;;5.68;2.03;;;;;;;22.23;47.12;100629.06;5049962;28;20794;-57
2022/05/29 09:19:48;;;;;;;2.33;1.90;;;;;;;22.10;47.57;100615.94;5050439;28;20415;-57
2022/05/29 09:22:22;;;;;;;2.05;1.70;;;;;;;21.80;48.30;100614.41;5048747;28;21121;-57
2022/05/29 09:24:55;;;;;;;4.35;2.10;;;;;;;22.18;48.19;100617.38;5047318;28;20808;-57
2022/05/29 09:27:23;;;;;;;2.67;1.92;;;;;;;21.59;48.68;100621.41;5045255;28;20428;-57
2022/05/29 09:29:51;;;;;;;3.45;1.90;;;;;;;21.83;48.45;100616.63;5050336;28;20420;-58
2022/05/29 09:32:21;;;;;;;2.13;1.67;;;;;;;21.58;48.31;100617.06;5043157;28;20416;-58
2022/05/29 09:35:00;;;;;;;3.05;1.40;;;;;;;21.98;46.89;100601.72;5035100;28;20929;-58
2022/05/29 09:37:38;;;;;;;2.90;1.90;;;;;;;22.13;47.20;100600.06;5041178;28;20416;-58
2022/05/29 09:40:11;;;;;;;3.33;1.50;;;;;;;22.23;46.99;100595.84;5042607;28;20470;-57
2022/05/29 09:42:40;;;;;;;3.35;1.90;;;;;;;22.12;47.07;100595.72;5039090;28;20422;-57
2022/05/29 09:45:15;;;;;;;2.97;1.97;;;;;;;21.86;48.18;100599.94;5038669;28;20439;-57
2022/05/29 09:50:44;;;;;;;2.72;1.90;;;;;;;21.81;49.09;100596.38;5047861;28;20420;-57
2022/05/29 09:53:14;;;;;;;2.25;2.00;;;;;;;21.95;48.30;100592.25;5033944;28;20423;-57
2022/05/29 09:55:50;;;;;;;2.90;1.42;;;;;;;22.15;47.46;100597.09;5049889;28;20421;-58
2022/05/29 09:58:24;;;;;;;1.70;1.33;;;;;;;22.26;46.00;100585.41;5035314;28;20420;-58
2022/05/29 10:00:56;;;;;;;2.05;1.20;;;;;;;22.51;44.45;100587.59;5046387;28;20419;-57
2022/05/29 10:03:38;;;;;;;4.47;1.90;;;;;;;22.53;44.53;100588.16;5041163;28;20413;-57
2022/05/29 10:06:14;;;;;;;2.55;1.50;;;;;;;22.61;45.29;100586.88;5049932;28;20482;-58
2022/05/29 10:08:41;;;;;;;5.30;1.60;;;;;;;22.82;44.85;100581.72;5038534;28;20414;-58
2022/05/29 10:11:17;;;;;;;2.08;1.25;;;;;;;22.67;44.17;100576.94;5043609;28;20418;-57
2022/05/29 10:13:44;;;;;;;1.40;1.00;;;;;;;22.51;43.47;100575.97;5043434;28;20548;-58
2022/05/29 10:16:13;;;;;;;1.33;1.10;;;;;;;22.68;44.03;100573.19;5049557;28;20424;-58
2022/05/29 10:18:41;;;;;;;2.20;1.40;;;;;;;;;;5049595;28;20420;-58
2022/05/29 10:21:15;;;;;;;3.20;1.20;;;;;;;22.65;44.73;100571.81;5039888;28;20906;-58
2022/05/29 10:23:49;;;;;;;1.63;1.38;;;;;;;22.40;45.87;100566.09;5039682;28;20484;-58
2022/05/29 10:26:31;;;;;;;1.40;1.20;;;;;;;22.53;46.08;100571.13;5040650;28;20502;-58
2022/05/29 10:28:59;;;;;;;2.28;1.08;;;;;;;22.60;44.09;100560.94;5029403;28;20406;-58
2022/05/29 10:31:28;;;;;;;1.70;0.90;;;;;;;22.61;43.09;100557.16;5029778;28;20412;-58
2022/05/29 10:34:07;;;;;;;1.45;1.10;;;;;;;22.57;44.70;100553.34;5031558;28;20418;-57
2022/05/29 10:36:36;;;;;;;2.10;1.40;;;;;;;22.68;44.47;100551.56;5042379;28;20423;-58
2022/05/29 10:39:08;;;;;;;9.23;3.03;;;;;;;23.24;44.30;100546.69;5035748;28;20416;-58
2022/05/29 10:41:39;;;;;;;2.38;1.30;;;;;;;23.12;43.88;100539.81;5032260;28;20414;-59
2022/05/29 10:44:07;;;;;;;2.38;1.30;;;;;;;23.32;43.88;100540.00;5049478;28;20811;-58
2022/05/29 10:46:49;;;;;;;2.67;1.20;;;;;;;23.30;44.26;100528.63;5049270;28;20424;-58
2022/05/29 10:49:33;;;;;;;4.07;1.33;;;;;;;23.45;43.94;100542.25;5047926;28;20474;-58
2022/05/29 10:52:22;;;;;;;1.60;1.17;;;;;;;23.28;44.58;100533.47;5045430;28;20431;-58
2022/05/29 10:55:27;;;;;;;1.50;1.17;;;;;;;22.71;44.84;100538.34;5043323;28;20416;-58
2022/05/29 10:58:09;;;;;;;3.15;1.40;;;;;;;23.09;44.53;100527.66;5014091;28;20502;-58
2022/05/29 11:00:51;;;;;;;6.77;1.43;;;;;;;23.41;44.05;100518.69;5036107;28;20413;-59
2022/05/29 11:03:51;;;;;;;2.75;1.20;;;;;;;23.06;45.23;100522.75;5037084;28;20421;-59
2022/05/29 11:07:00;;;;;;;2.17;1.13;;;;;;;22.83;45.09;100508.47;5027471;28;20430;-59
2022/05/29 11:10:02;;;;;;;2.38;1.27;;;;;;;23.15;44.26;100507.69;5043671;28;20462;-59
2022/05/29 11:12:40;;;;;;;1.30;1.10;;;;;;;23.05;43.78;100502.22;5046672;28;21215;-59
2022/05/29 11:15:20;;;;;;;1.83;1.30;;;;;;;23.35;44.09;100489.97;5029150;28;20914;-59
2022/05/29 11:18:04;;;;;;;3.70;1.50;;;;;;;23.33;44.63;100478.59;5038742;28;20429;-59
2022/05/29 11:20:51;;;;;;;2.05;1.20;;;;;;;23.14;45.22;100476.31;5033936;28;20490;-59
2022/05/29 11:23:30;;;;;;;1.90;1.20;;;;;;;23.23;45.34;100472.06;5035566;28;20415;-59
2022/05/29 11:26:08;;;;;;;2.72;1.42;;;;;;;23.06;46.33;100477.59;5036168;28;20906;-58
2022/05/29 11:29:12;;;;;;;2.65;1.40;;;;;;;23.02;46.40;100475.66;5042055;28;20412;-58
2022/05/29 11:31:50;;;;;;;3.08;1.42;;;;;;;22.83;46.83;100470.66;5034021;28;20764;-59
2022/05/29 11:34:34;;;;;;;2.40;1.50;;;;;;;22.79;46.79;100474.91;5031097;28;20852;-59
2022/05/29 11:37:23;;;;;;;1.90;1.52;;;;;;;23.05;46.65;100465.16;5042162;28;20425;-58
2022/05/29 11:39:54;;;;;;;3.28;1.77;;;;;;;22.97;47.47;100465.59;5041087;28;20418;-59
2022/05/29 11:42:26;;;;;;;2.67;1.80;;;;;;;22.95;48.11;100465.06;5032147;28;20423;-59
2022/05/29 11:45:01;;;;;;;3.00;1.90;;;;;;;22.77;48.07;100465.44;5031808;28;20804;-59
2022/05/29 11:53:22;;;;;;;4.43;2.13;;;;;;;22.61;49.94;100456.38;5035539;28;20431;-59
2022/05/29 11:55:50;;;;;;;5.93;1.88;;;;;;;22.47;50.58;100448.72;5038034;28;20952;-59
2022/05/29 11:58:23;;;;;;;4.83;2.10;;;;;;;22.25;50.78;100451.41;5037951;28;20910;-57
2022/05/29 12:00:57;;;;;;;3.37;2.10;;;;;;;22.03;51.04;100448.75;5035897;28;20866;-59
2022/05/29 12:03:36;;;;;;;2.90;2.00;;;;;;;22.23;50.82;100444.66;5037804;28;20420;-58
2022/05/29 12:06:09;;;;;;;4.00;2.20;;;;;;;22.12;51.05;100449.94;5035610;28;20531;-59
2022/05/29 12:08:48;;;;;;;2.35;2.05;;;;;;;22.23;50.48;100455.44;5036051;28;20495;-59
2022/05/29 12:11:35;;;;;;;3.40;2.30;;;;;;;22.21;50.90;100452.19;5036870;28;20436;-58
2022/05/29 12:14:06;;;;;;;2.90;2.17;;;;;;;21.97;50.76;100441.69;5040028;28;20785;-58
2022/05/29 12:16:38;;;;;;;3.15;2.47;;;;;;;22.00;50.73;100440.34;5038158;28;20420;-59
2022/05/29 12:19:10;;;;;;;5.10;2.63;;;;;;;22.00;50.60;100438.44;5038043;28;20448;-59
2022/05/29 12:21:49;;;;;;;5.53;2.80;;;;;;;21.96;51.15;100430.03;5040784;28;20475;-58
2022/05/29 12:24:21;;;;;;;3.88;3.10;;;;;;;22.21;50.98;100420.59;5039189;28;20420;-58
2022/05/29 12:26:53;;;;;;;3.78;3.33;;;;;;;22.10;51.43;100429.66;5040828;28;20440;-58
2022/05/29 12:29:25;;;;;;;6.47;3.80;;;;;;;21.77;52.76;100429.56;5040222;28;20904;-57
2022/05/29 12:31:58;;;;;;;5.30;4.80;;;;;;;21.57;53.34;100421.22;5040921;28;20778;-59